Time,TemperatureF,DewpointF,PressureIn,WindDirection,WindDirectionDegrees,WindSpeedMPH,WindSpeedGustMPH,Humidity,HourlyPrecipIn,Conditions,Clouds,dailyrainin,SoftwareType,DateUTC
2013-01-30 00:02:00,45.7,43.2,30.28,NW,309,7.0,10.0,91,0.00,,,0.00,meteohub,2013-01-30 08:02:00,
2013-01-30 00:07:00,46.6,43.9,30.28,NW,321,8.0,10.0,90,0.00,,,0.00,meteohub,2013-01-30 08:07:00,
2013-01-30 00:12:00,47.8,44.2,30.27,NNW,330,10.0,10.0,87,0.00,,,0.00,meteohub,2013-01-30 08:12:00,
2013-01-30 00:17:00,48.9,44.1,30.27,NNW,328,9.0,14.0,83,0.00,,,0.00,meteohub,2013-01-30 08:17:00,
2013-01-30 00:22:00,49.6,44.1,30.27,NNW,336,9.0,14.0,81,0.00,,,0.00,meteohub,2013-01-30 08:22:00,
2013-01-30 00:27:00,49.6,43.7,30.27,NNW,339,7.0,14.0,80,0.00,,,0.00,meteohub,2013-01-30 08:27:00,
2013-01-30 00:32:00,49.6,43.7,30.27,NW,326,6.0,13.0,80,0.00,,,0.00,meteohub,2013-01-30 08:32:00,
2013-01-30 00:37:00,49.5,43.5,30.27,NNW,333,8.0,12.0,80,0.00,,,0.00,meteohub,2013-01-30 08:37:00,
2013-01-30 00:42:00,49.3,43.3,30.27,NNW,340,7.0,12.0,80,0.00,,,0.00,meteohub,2013-01-30 08:42:00,
2013-01-30 00:47:00,49.1,43.2,30.27,NNW,347,5.0,12.0,80,0.00,,,0.00,meteohub,2013-01-30 08:47:00,
2013-01-30 00:52:00,48.9,43.3,30.27,NNW,329,7.0,13.0,81,0.00,,,0.00,meteohub,2013-01-30 08:52:00,
2013-01-30 00:57:00,48.7,43.2,30.26,NNW,330,6.0,13.0,81,0.00,,,0.00,meteohub,2013-01-30 08:57:00,
2013-01-30 01:02:00,48.7,43.2,30.26,NNW,339,6.0,13.0,81,0.00,,,0.00,meteohub,2013-01-30 09:02:00,
2013-01-30 01:07:00,48.7,43.2,30.26,NNW,341,7.0,10.0,81,0.00,,,0.00,meteohub,2013-01-30 09:07:00,
2013-01-30 01:12:00,48.9,43.3,30.26,NW,325,2.0,13.0,81,0.00,,,0.00,meteohub,2013-01-30 09:12:00,
2013-01-30 01:17:00,48.6,42.6,30.26,West,273,5.0,13.0,80,0.00,,,0.00,meteohub,2013-01-30 09:17:00,
2013-01-30 01:22:00,48.2,42.6,30.26,West,273,3.0,13.0,81,0.00,,,0.00,meteohub,2013-01-30 09:22:00,
2013-01-30 01:27:00,48.2,42.6,30.26,West,273,3.0,10.0,81,0.00,,,0.00,meteohub,2013-01-30 09:27:00,
2013-01-30 01:32:00,47.8,42.3,30.26,West,273,4.0,5.0,81,0.00,,,0.00,meteohub,2013-01-30 09:32:00,
2013-01-30 01:37:00,47.5,41.9,30.26,NW,314,4.0,6.0,81,0.00,,,0.00,meteohub,2013-01-30 09:37:00,
2013-01-30 01:42:00,47.3,42.1,30.26,NW,309,4.0,6.0,82,0.00,,,0.00,meteohub,2013-01-30 09:42:00,
2013-01-30 01:47:00,47.1,41.9,30.26,NW,309,4.0,6.0,82,0.00,,,0.00,meteohub,2013-01-30 09:47:00,
2013-01-30 01:52:00,46.9,42.1,30.26,NW,309,4.0,6.0,83,0.00,,,0.00,meteohub,2013-01-30 09:52:00,
2013-01-30 01:57:00,47.1,42.3,30.26,NW,309,4.0,5.0,83,0.00,,,0.00,meteohub,2013-01-30 09:57:00,
2013-01-30 02:02:00,47.3,42.1,30.26,NW,309,3.0,5.0,82,0.00,,,0.00,meteohub,2013-01-30 10:02:00,
2013-01-30 02:07:00,47.1,41.9,30.26,NW,309,5.0,5.0,82,0.00,,,0.00,meteohub,2013-01-30 10:07:00,
2013-01-30 02:12:00,47.7,42.4,30.26,NW,309,4.0,5.0,82,0.00,,,0.00,meteohub,2013-01-30 10:12:00,
2013-01-30 02:17:00,47.7,42.1,30.26,NW,304,5.0,6.0,81,0.00,,,0.00,meteohub,2013-01-30 10:17:00,
2013-01-30 02:22:00,47.8,42.3,30.26,NW,304,4.0,7.0,81,0.00,,,0.00,meteohub,2013-01-30 10:22:00,
2013-01-30 02:27:00,47.8,41.9,30.26,WNW,303,2.0,7.0,80,0.00,,,0.00,meteohub,2013-01-30 10:27:00,
2013-01-30 02:32:00,47.8,42.3,30.26,WNW,300,3.0,7.0,81,0.00,,,0.00,meteohub,2013-01-30 10:32:00,
2013-01-30 02:37:00,47.8,41.9,30.26,WNW,300,4.0,7.0,80,0.00,,,0.00,meteohub,2013-01-30 10:37:00,
2013-01-30 02:42:00,47.8,41.9,30.25,WNW,300,0.0,7.0,80,0.00,,,0.00,meteohub,2013-01-30 10:42:00,
2013-01-30 02:47:00,47.7,41.7,30.25,WNW,300,0.0,5.0,80,0.00,,,0.00,meteohub,2013-01-30 10:47:00,
2013-01-30 02:52:00,47.3,41.4,30.25,WNW,300,0.0,5.0,80,0.00,,,0.00,meteohub,2013-01-30 10:52:00,
2013-01-30 02:57:00,46.9,41.4,30.25,WNW,300,1.0,3.0,81,0.00,,,0.00,meteohub,2013-01-30 10:57:00,
2013-01-30 03:02:00,46.8,41.5,30.25,WNW,300,0.0,2.0,82,0.00,,,0.00,meteohub,2013-01-30 11:02:00,
2013-01-30 03:07:00,46.4,41.2,30.25,WNW,300,2.0,3.0,82,0.00,,,0.00,meteohub,2013-01-30 11:07:00,
2013-01-30 03:12:00,46.2,41.4,30.25,WNW,300,3.0,4.0,83,0.00,,,0.00,meteohub,2013-01-30 11:12:00,
2013-01-30 03:17:00,46.4,41.9,30.25,WNW,300,5.0,5.0,84,0.00,,,0.00,meteohub,2013-01-30 11:17:00,
2013-01-30 03:22:00,46.8,41.9,30.25,WNW,300,4.0,6.0,83,0.00,,,0.00,meteohub,2013-01-30 11:22:00,
2013-01-30 03:27:00,46.8,41.9,30.25,WNW,300,4.0,6.0,83,0.00,,,0.00,meteohub,2013-01-30 11:27:00,
2013-01-30 03:32:00,46.8,41.9,30.25,WNW,300,4.0,6.0,83,0.00,,,0.00,meteohub,2013-01-30 11:32:00,
2013-01-30 03:37:00,46.6,41.7,30.25,WNW,300,5.0,6.0,83,0.00,,,0.00,meteohub,2013-01-30 11:37:00,
2013-01-30 03:42:00,46.2,41.4,30.25,WNW,300,4.0,6.0,83,0.00,,,0.00,meteohub,2013-01-30 11:42:00,
2013-01-30 03:47:00,46.4,41.9,30.25,WNW,301,2.0,7.0,84,0.00,,,0.00,meteohub,2013-01-30 11:47:00,
2013-01-30 03:52:00,46.8,41.9,30.25,WNW,303,2.0,7.0,83,0.00,,,0.00,meteohub,2013-01-30 11:52:00,
2013-01-30 03:57:00,47.1,41.9,30.24,NW,324,5.0,7.0,82,0.00,,,0.00,meteohub,2013-01-30 11:57:00,
2013-01-30 04:02:00,47.5,41.9,30.24,NNW,339,7.0,7.0,81,0.00,,,0.00,meteohub,2013-01-30 12:02:00,
2013-01-30 04:07:00,47.8,41.9,30.24,NNW,338,0.0,8.0,80,0.00,,,0.00,meteohub,2013-01-30 12:07:00,
2013-01-30 04:12:00,47.7,41.7,30.24,NNW,338,4.0,8.0,80,0.00,,,0.00,meteohub,2013-01-30 12:12:00,
2013-01-30 04:17:00,46.8,41.2,30.24,NNW,338,2.0,8.0,81,0.00,,,0.00,meteohub,2013-01-30 12:17:00,
2013-01-30 04:22:00,46.2,40.6,30.24,NNW,338,2.0,6.0,81,0.00,,,0.00,meteohub,2013-01-30 12:22:00,
2013-01-30 04:27:00,46.0,40.8,30.24,NNW,338,2.0,4.0,82,0.00,,,0.00,meteohub,2013-01-30 12:27:00,
2013-01-30 04:32:00,45.9,41.0,30.24,NNW,338,4.0,4.0,83,0.00,,,0.00,meteohub,2013-01-30 12:32:00,
2013-01-30 04:37:00,45.7,40.8,30.24,NNW,338,0.0,4.0,83,0.00,,,0.00,meteohub,2013-01-30 12:37:00,
2013-01-30 04:42:00,45.7,41.2,30.24,NNW,338,1.0,4.0,84,0.00,,,0.00,meteohub,2013-01-30 12:42:00,
2013-01-30 04:47:00,45.7,41.2,30.24,NNW,338,0.0,4.0,84,0.00,,,0.00,meteohub,2013-01-30 12:47:00,
2013-01-30 04:52:00,45.7,41.2,30.24,NNW,338,0.0,4.0,84,0.00,,,0.00,meteohub,2013-01-30 12:52:00,
2013-01-30 04:57:00,45.3,40.5,30.24,NNW,338,2.0,4.0,83,0.00,,,0.00,meteohub,2013-01-30 12:57:00,
2013-01-30 05:02:00,45.0,40.5,30.24,NNW,338,0.0,3.0,84,0.00,,,0.00,meteohub,2013-01-30 13:02:00,
2013-01-30 05:07:00,44.8,40.3,30.24,NNW,338,0.0,3.0,84,0.00,,,0.00,meteohub,2013-01-30 13:07:00,
2013-01-30 05:12:00,44.8,40.5,30.24,NNW,338,3.0,3.0,85,0.00,,,0.00,meteohub,2013-01-30 13:12:00,
2013-01-30 05:17:00,44.4,40.3,30.24,NNW,338,1.0,3.0,85,0.00,,,0.00,meteohub,2013-01-30 13:17:00,
2013-01-30 05:22:00,44.2,40.3,30.24,NNW,338,0.0,3.0,86,0.00,,,0.00,meteohub,2013-01-30 13:22:00,
2013-01-30 05:27:00,44.2,40.3,30.24,NNW,338,0.0,3.0,86,0.00,,,0.00,meteohub,2013-01-30 13:27:00,
2013-01-30 05:32:00,44.2,40.3,30.24,NNW,338,0.0,3.0,86,0.00,,,0.00,meteohub,2013-01-30 13:32:00,
2013-01-30 05:37:00,44.2,40.6,30.24,NNW,338,0.0,2.0,87,0.00,,,0.00,meteohub,2013-01-30 13:37:00,
2013-01-30 05:42:00,44.2,40.6,30.24,NNW,338,1.0,2.0,87,0.00,,,0.00,meteohub,2013-01-30 13:42:00,
2013-01-30 05:47:00,44.2,40.3,30.24,NNW,338,2.0,2.0,86,0.00,,,0.00,meteohub,2013-01-30 13:47:00,
2013-01-30 05:52:00,44.1,40.5,30.24,NNW,338,1.0,2.0,87,0.00,,,0.00,meteohub,2013-01-30 13:52:00,
2013-01-30 05:57:00,43.9,39.9,30.24,NNW,338,0.0,3.0,86,0.00,,,0.00,meteohub,2013-01-30 13:57:00,
2013-01-30 06:02:00,43.7,40.1,30.24,NNW,338,0.0,3.0,87,0.00,,,0.00,meteohub,2013-01-30 14:02:00,
2013-01-30 06:07:00,43.7,40.1,30.24,NNW,338,0.0,3.0,87,0.00,,,0.00,meteohub,2013-01-30 14:07:00,
2013-01-30 06:12:00,43.7,40.1,30.24,NNW,338,0.0,3.0,87,0.00,,,0.00,meteohub,2013-01-30 14:12:00,
2013-01-30 06:17:00,43.5,39.9,30.24,NNW,338,1.0,3.0,87,0.00,,,0.00,meteohub,2013-01-30 14:17:00,
2013-01-30 06:22:00,43.9,40.6,30.24,NNW,338,0.0,3.0,88,0.00,,,0.00,meteohub,2013-01-30 14:22:00,
2013-01-30 06:27:00,44.1,40.5,30.25,NNW,338,0.0,3.0,87,0.00,,,0.00,meteohub,2013-01-30 14:27:00,
2013-01-30 06:37:00,44.1,40.5,30.25,NNW,338,0.0,2.0,87,0.00,,,0.00,meteohub,2013-01-30 14:37:00,
2013-01-30 06:42:00,44.1,40.5,30.25,NNW,338,0.0,2.0,87,0.00,,,0.00,meteohub,2013-01-30 14:42:00,
2013-01-30 06:47:00,44.2,40.6,30.25,NNW,338,0.0,1.0,87,0.00,,,0.00,meteohub,2013-01-30 14:47:00,
2013-01-30 06:52:00,44.2,40.3,30.25,NNW,338,0.0,2.0,86,0.00,,,0.00,meteohub,2013-01-30 14:52:00,
2013-01-30 06:57:00,44.1,40.1,30.25,NNW,338,0.0,2.0,86,0.00,,,0.00,meteohub,2013-01-30 14:57:00,
2013-01-30 07:02:00,44.1,40.1,30.25,NNW,338,0.0,1.0,86,0.00,,,0.00,meteohub,2013-01-30 15:02:00,
2013-01-30 07:07:00,44.1,40.5,30.25,NNW,338,1.0,2.0,87,0.00,,,0.00,meteohub,2013-01-30 15:07:00,
2013-01-30 07:12:00,44.2,40.6,30.26,NNW,338,3.0,3.0,87,0.00,,,0.00,meteohub,2013-01-30 15:12:00,
2013-01-30 07:17:00,44.8,41.2,30.26,NNW,338,2.0,3.0,87,0.00,,,0.00,meteohub,2013-01-30 15:17:00,
2013-01-30 07:22:00,45.3,41.4,30.26,NNW,338,0.0,3.0,86,0.00,,,0.00,meteohub,2013-01-30 15:22:00,
2013-01-30 07:27:00,45.7,41.2,30.26,NNW,338,2.0,3.0,84,0.00,,,0.00,meteohub,2013-01-30 15:27:00,
2013-01-30 07:32:00,45.7,41.2,30.26,NNW,338,3.0,3.0,84,0.00,,,0.00,meteohub,2013-01-30 15:32:00,
2013-01-30 07:37:00,45.9,41.4,30.26,NNW,338,3.0,3.0,84,0.00,,,0.00,meteohub,2013-01-30 15:37:00,
2013-01-30 07:47:00,46.2,41.0,30.27,NNW,338,0.0,3.0,82,0.00,,,0.00,meteohub,2013-01-30 15:47:00,
2013-01-30 07:52:00,46.4,41.2,30.27,NNW,338,0.0,3.0,82,0.00,,,0.00,meteohub,2013-01-30 15:52:00,
2013-01-30 07:57:00,46.8,41.5,30.27,NNW,338,0.0,3.0,82,0.00,,,0.00,meteohub,2013-01-30 15:57:00,
2013-01-30 08:02:00,47.5,41.9,30.27,NNW,338,0.0,1.0,81,0.00,,,0.00,meteohub,2013-01-30 16:02:00,
2013-01-30 08:07:00,47.7,41.7,30.27,NNW,338,0.0,1.0,80,0.00,,,0.00,meteohub,2013-01-30 16:07:00,
2013-01-30 08:17:00,48.2,41.7,30.27,NNW,338,0.0,0.0,78,0.00,,,0.00,meteohub,2013-01-30 16:17:00,
2013-01-30 08:22:00,47.3,41.2,30.27,NNW,338,0.0,0.0,79,0.00,,,0.00,meteohub,2013-01-30 16:22:00,
2013-01-30 08:32:00,46.0,40.8,30.28,East,82,5.0,5.0,82,0.00,,,0.00,meteohub,2013-01-30 16:32:00,
2013-01-30 08:37:00,44.6,41.0,30.28,East,82,5.0,7.0,87,0.00,,,0.00,meteohub,2013-01-30 16:37:00,
2013-01-30 08:42:00,44.6,41.5,30.28,East,82,2.0,7.0,89,0.00,,,0.00,meteohub,2013-01-30 16:42:00,
2013-01-30 08:47:00,45.5,42.1,30.28,East,82,1.0,6.0,88,0.00,,,0.00,meteohub,2013-01-30 16:47:00,
2013-01-30 08:52:00,46.6,43.0,30.28,East,82,0.0,6.0,87,0.00,,,0.00,meteohub,2013-01-30 16:52:00,
2013-01-30 09:02:00,47.5,42.6,30.29,East,82,2.0,3.0,83,0.00,,,0.00,meteohub,2013-01-30 17:02:00,
2013-01-30 09:07:00,48.0,43.7,30.29,East,82,2.0,5.0,85,0.00,,,0.00,meteohub,2013-01-30 17:07:00,
2013-01-30 09:12:00,48.0,43.3,30.29,East,82,2.0,5.0,84,0.00,,,0.00,meteohub,2013-01-30 17:12:00,
2013-01-30 09:17:00,48.0,43.7,30.29,East,82,1.0,5.0,85,0.00,,,0.00,meteohub,2013-01-30 17:17:00,
2013-01-30 09:27:00,49.1,44.2,30.29,East,82,2.0,5.0,83,0.00,,,0.00,meteohub,2013-01-30 17:27:00,
2013-01-30 09:32:00,49.3,44.4,30.29,East,82,3.0,3.0,83,0.00,,,0.00,meteohub,2013-01-30 17:32:00,
2013-01-30 09:37:00,49.3,44.4,30.29,East,82,2.0,3.0,83,0.00,,,0.00,meteohub,2013-01-30 17:37:00,
2013-01-30 09:42:00,49.6,45.0,30.29,East,82,1.0,5.0,84,0.00,,,0.00,meteohub,2013-01-30 17:42:00,
2013-01-30 09:47:00,50.2,44.2,30.29,East,82,0.0,5.0,80,0.00,,,0.00,meteohub,2013-01-30 17:47:00,
2013-01-30 09:52:00,50.7,45.1,30.29,East,82,2.0,3.0,81,0.00,,,0.00,meteohub,2013-01-30 17:52:00,
2013-01-30 09:57:00,50.5,45.0,30.29,East,82,2.0,3.0,81,0.00,,,0.00,meteohub,2013-01-30 17:57:00,
2013-01-30 10:02:00,50.5,45.0,30.29,East,98,2.0,3.0,81,0.00,,,0.00,meteohub,2013-01-30 18:02:00,
2013-01-30 10:07:00,50.4,44.8,30.29,East,98,2.0,5.0,81,0.00,,,0.00,meteohub,2013-01-30 18:07:00,
2013-01-30 10:12:00,50.5,45.0,30.30,East,98,1.0,5.0,81,0.00,,,0.00,meteohub,2013-01-30 18:12:00,
2013-01-30 10:17:00,50.5,45.0,30.30,East,98,1.0,5.0,81,0.00,,,0.00,meteohub,2013-01-30 18:17:00,
2013-01-30 10:22:00,51.1,45.9,30.30,East,98,2.0,5.0,82,0.00,,,0.00,meteohub,2013-01-30 18:22:00,
2013-01-30 10:27:00,51.3,45.7,30.30,East,98,3.0,5.0,81,0.00,,,0.00,meteohub,2013-01-30 18:27:00,
2013-01-30 10:32:00,51.6,46.0,30.30,East,98,3.0,5.0,81,0.00,,,0.00,meteohub,2013-01-30 18:32:00,
2013-01-30 10:42:00,52.9,46.9,30.30,East,97,2.0,5.0,80,0.00,,,0.00,meteohub,2013-01-30 18:42:00,
2013-01-30 10:47:00,52.9,46.2,30.30,East,97,3.0,5.0,78,0.00,,,0.00,meteohub,2013-01-30 18:47:00,
2013-01-30 10:52:00,53.2,46.6,30.30,East,97,3.0,5.0,78,0.00,,,0.00,meteohub,2013-01-30 18:52:00,
2013-01-30 10:57:00,53.2,46.2,30.30,East,97,2.0,5.0,77,0.00,,,0.00,meteohub,2013-01-30 18:57:00,
2013-01-30 11:02:00,53.4,46.4,30.30,East,97,5.0,5.0,77,0.00,,,0.00,meteohub,2013-01-30 19:02:00,
2013-01-30 11:07:00,54.0,46.9,30.30,East,97,3.0,6.0,77,0.00,,,0.00,meteohub,2013-01-30 19:07:00,
2013-01-30 11:12:00,54.7,48.4,30.29,East,97,1.0,6.0,79,0.00,,,0.00,meteohub,2013-01-30 19:12:00,
2013-01-30 11:17:00,55.0,48.0,30.29,East,97,2.0,6.0,77,0.00,,,0.00,meteohub,2013-01-30 19:17:00,
2013-01-30 11:22:00,55.2,47.5,30.29,East,97,5.0,5.0,75,0.00,,,0.00,meteohub,2013-01-30 19:22:00,
2013-01-30 11:27:00,55.2,47.8,30.29,East,97,2.0,6.0,76,0.00,,,0.00,meteohub,2013-01-30 19:27:00,
2013-01-30 11:32:00,55.6,47.5,30.29,SE,128,0.0,6.0,74,0.00,,,0.00,meteohub,2013-01-30 19:32:00,
2013-01-30 11:37:00,56.1,48.4,30.29,South,177,1.0,6.0,75,0.00,,,0.00,meteohub,2013-01-30 19:37:00,
2013-01-30 11:42:00,56.1,47.7,30.28,SE,139,2.0,5.0,73,0.00,,,0.00,meteohub,2013-01-30 19:42:00,
2013-01-30 11:47:00,56.5,47.5,30.28,SE,128,0.0,4.0,72,0.00,,,0.00,meteohub,2013-01-30 19:47:00,
2013-01-30 11:52:00,57.0,49.1,30.28,SE,127,2.0,4.0,75,0.00,,,0.00,meteohub,2013-01-30 19:52:00,
2013-01-30 11:57:00,57.6,48.9,30.27,SE,127,2.0,4.0,73,0.00,,,0.00,meteohub,2013-01-30 19:57:00,
2013-01-30 12:02:00,58.3,48.9,30.27,SE,127,0.0,4.0,71,0.00,,,0.00,meteohub,2013-01-30 20:02:00,
2013-01-30 12:07:00,58.3,48.6,30.27,SE,127,0.0,4.0,70,0.00,,,0.00,meteohub,2013-01-30 20:07:00,
2013-01-30 12:12:00,58.8,49.5,30.27,SE,127,1.0,4.0,71,0.00,,,0.00,meteohub,2013-01-30 20:12:00,
2013-01-30 12:17:00,58.6,48.2,30.27,SE,127,0.0,4.0,68,0.00,,,0.00,meteohub,2013-01-30 20:17:00,
2013-01-30 12:22:00,59.2,49.5,30.27,SE,127,2.0,3.0,70,0.00,,,0.00,meteohub,2013-01-30 20:22:00,
2013-01-30 12:27:00,59.2,49.5,30.26,SE,127,0.0,3.0,70,0.00,,,0.00,meteohub,2013-01-30 20:27:00,
2013-01-30 12:32:00,59.2,49.1,30.26,ESE,102,2.0,4.0,69,0.00,,,0.00,meteohub,2013-01-30 20:32:00,
2013-01-30 12:37:00,59.4,49.1,30.26,East,98,5.0,5.0,69,0.00,,,0.00,meteohub,2013-01-30 20:37:00,
2013-01-30 12:42:00,59.7,50.0,30.26,East,98,3.0,6.0,70,0.00,,,0.00,meteohub,2013-01-30 20:42:00,
2013-01-30 12:47:00,59.9,49.3,30.26,East,98,0.0,6.0,68,0.00,,,0.00,meteohub,2013-01-30 20:47:00,
2013-01-30 12:52:00,60.4,49.5,30.26,East,98,3.0,6.0,67,0.00,,,0.00,meteohub,2013-01-30 20:52:00,
2013-01-30 12:57:00,60.3,48.9,30.25,East,100,2.0,5.0,66,0.00,,,0.00,meteohub,2013-01-30 20:57:00,
2013-01-30 13:02:00,60.4,49.1,30.25,East,100,2.0,6.0,66,0.00,,,0.00,meteohub,2013-01-30 21:02:00,
2013-01-30 13:07:00,60.8,49.5,30.25,East,100,2.0,6.0,66,0.00,,,0.00,meteohub,2013-01-30 21:07:00,
2013-01-30 13:12:00,61.0,49.5,30.25,East,96,1.0,5.0,66,0.00,,,0.00,meteohub,2013-01-30 21:12:00,
2013-01-30 13:17:00,61.2,49.6,30.25,East,96,2.0,5.0,66,0.00,,,0.00,meteohub,2013-01-30 21:17:00,
2013-01-30 13:22:00,61.3,49.5,30.25,East,88,3.0,5.0,65,0.00,,,0.00,meteohub,2013-01-30 21:22:00,
2013-01-30 13:27:00,61.3,49.8,30.24,East,88,0.0,5.0,66,0.00,,,0.00,meteohub,2013-01-30 21:27:00,
2013-01-30 13:32:00,61.9,49.1,30.24,East,92,1.0,5.0,63,0.00,,,0.00,meteohub,2013-01-30 21:32:00,
2013-01-30 13:37:00,62.1,48.9,30.24,East,90,0.0,5.0,62,0.00,,,0.00,meteohub,2013-01-30 21:37:00,
2013-01-30 13:42:00,62.2,50.4,30.23,East,90,0.0,5.0,65,0.00,,,0.00,meteohub,2013-01-30 21:42:00,
2013-01-30 13:47:00,62.8,50.0,30.23,East,90,1.0,5.0,63,0.00,,,0.00,meteohub,2013-01-30 21:47:00,
2013-01-30 13:52:00,63.0,50.2,30.23,East,90,1.0,5.0,63,0.00,,,0.00,meteohub,2013-01-30 21:52:00,
2013-01-30 13:57:00,63.0,51.4,30.23,East,90,3.0,3.0,66,0.00,,,0.00,meteohub,2013-01-30 21:57:00,
2013-01-30 14:02:00,62.8,51.3,30.23,East,89,3.0,5.0,66,0.00,,,0.00,meteohub,2013-01-30 22:02:00,
2013-01-30 14:07:00,62.4,50.0,30.23,NNW,331,2.0,6.0,64,0.00,,,0.00,meteohub,2013-01-30 22:07:00,
2013-01-30 14:12:00,62.8,52.0,30.23,NW,321,7.0,7.0,68,0.00,,,0.00,meteohub,2013-01-30 22:12:00,
2013-01-30 14:17:00,62.2,51.6,30.23,NW,317,4.0,7.0,68,0.00,,,0.00,meteohub,2013-01-30 22:17:00,
2013-01-30 14:22:00,62.4,50.9,30.23,NW,316,5.0,7.0,66,0.00,,,0.00,meteohub,2013-01-30 22:22:00,
2013-01-30 14:27:00,62.4,52.9,30.23,NW,306,4.0,7.0,71,0.00,,,0.00,meteohub,2013-01-30 22:27:00,
2013-01-30 14:32:00,62.1,52.5,30.23,WNW,297,7.0,8.0,71,0.00,,,0.00,meteohub,2013-01-30 22:32:00,
2013-01-30 14:37:00,61.9,52.3,30.23,WNW,296,5.0,8.0,71,0.00,,,0.00,meteohub,2013-01-30 22:37:00,
2013-01-30 14:42:00,61.9,52.7,30.22,WNW,296,4.0,8.0,72,0.00,,,0.00,meteohub,2013-01-30 22:42:00,
2013-01-30 14:47:00,61.7,52.2,30.22,WNW,291,5.0,8.0,71,0.00,,,0.00,meteohub,2013-01-30 22:47:00,
2013-01-30 14:52:00,61.5,52.0,30.22,WNW,288,4.0,8.0,71,0.00,,,0.00,meteohub,2013-01-30 22:52:00,
2013-01-30 14:57:00,61.7,51.8,30.22,NW,305,5.0,8.0,70,0.00,,,0.00,meteohub,2013-01-30 22:57:00,
2013-01-30 15:02:00,61.5,51.3,30.22,WNW,291,5.0,9.0,69,0.00,,,0.00,meteohub,2013-01-30 23:02:00,
2013-01-30 15:07:00,61.3,51.4,30.22,WNW,290,7.0,9.0,70,0.00,,,0.00,meteohub,2013-01-30 23:07:00,
2013-01-30 15:12:00,61.2,51.3,30.22,WNW,289,4.0,8.0,70,0.00,,,0.00,meteohub,2013-01-30 23:12:00,
2013-01-30 15:17:00,61.2,51.3,30.22,WNW,282,4.0,8.0,70,0.00,,,0.00,meteohub,2013-01-30 23:17:00,
2013-01-30 15:22:00,61.0,50.7,30.22,WNW,282,6.0,8.0,69,0.00,,,0.00,meteohub,2013-01-30 23:22:00,
2013-01-30 15:27:00,61.0,51.1,30.22,WNW,282,5.0,8.0,70,0.00,,,0.00,meteohub,2013-01-30 23:27:00,
2013-01-30 15:32:00,60.6,50.4,30.22,WNW,282,6.0,7.0,69,0.00,,,0.00,meteohub,2013-01-30 23:32:00,
2013-01-30 15:37:00,60.6,51.1,30.22,WNW,282,6.0,7.0,71,0.00,,,0.00,meteohub,2013-01-30 23:37:00,
2013-01-30 15:42:00,60.6,51.1,30.22,WNW,282,5.0,7.0,71,0.00,,,0.00,meteohub,2013-01-30 23:42:00,
2013-01-30 15:47:00,60.6,51.1,30.22,WNW,282,6.0,7.0,71,0.00,,,0.00,meteohub,2013-01-30 23:47:00,
2013-01-30 15:52:00,60.4,50.5,30.22,WNW,282,3.0,7.0,70,0.00,,,0.00,meteohub,2013-01-30 23:52:00,
2013-01-30 15:57:00,60.4,50.2,30.22,WNW,282,3.0,6.0,69,0.00,,,0.00,meteohub,2013-01-30 23:57:00,
2013-01-30 16:02:00,60.3,50.4,30.22,WNW,282,4.0,6.0,70,0.00,,,0.00,meteohub,2013-01-31 00:02:00,
2013-01-30 16:07:00,60.1,49.5,30.22,WNW,282,6.0,6.0,68,0.00,,,0.00,meteohub,2013-01-31 00:07:00,
2013-01-30 16:12:00,59.9,49.3,30.22,WNW,282,5.0,7.0,68,0.00,,,0.00,meteohub,2013-01-31 00:12:00,
2013-01-30 16:17:00,59.7,50.0,30.22,WNW,282,6.0,7.0,70,0.00,,,0.00,meteohub,2013-01-31 00:17:00,
2013-01-30 16:22:00,59.5,49.8,30.22,WNW,282,4.0,7.0,70,0.00,,,0.00,meteohub,2013-01-31 00:22:00,
2013-01-30 16:27:00,59.4,49.6,30.22,WNW,282,4.0,7.0,70,0.00,,,0.00,meteohub,2013-01-31 00:27:00,
2013-01-30 16:32:00,58.8,49.1,30.22,WNW,282,4.0,6.0,70,0.00,,,0.00,meteohub,2013-01-31 00:32:00,
2013-01-30 16:37:00,58.6,49.6,30.22,WNW,282,3.0,6.0,72,0.00,,,0.00,meteohub,2013-01-31 00:37:00,
2013-01-30 16:42:00,58.5,49.5,30.22,WNW,282,3.0,6.0,72,0.00,,,0.00,meteohub,2013-01-31 00:42:00,
2013-01-30 16:47:00,58.1,49.5,30.22,WNW,282,2.0,6.0,73,0.00,,,0.00,meteohub,2013-01-31 00:47:00,
2013-01-30 16:52:00,57.7,48.7,30.22,WNW,282,5.0,5.0,72,0.00,,,0.00,meteohub,2013-01-31 00:52:00,
2013-01-30 16:57:00,57.2,48.6,30.22,WNW,282,2.0,6.0,73,0.00,,,0.00,meteohub,2013-01-31 00:57:00,
2013-01-30 17:02:00,56.7,48.4,30.22,WNW,282,4.0,6.0,74,0.00,,,0.00,meteohub,2013-01-31 01:02:00,
2013-01-30 17:07:00,56.1,48.0,30.22,WNW,282,4.0,7.0,74,0.00,,,0.00,meteohub,2013-01-31 01:07:00,
2013-01-30 17:12:00,55.4,47.3,30.23,WNW,282,3.0,7.0,74,0.00,,,0.00,meteohub,2013-01-31 01:12:00,
2013-01-30 17:17:00,54.7,46.9,30.23,WNW,284,5.0,7.0,75,0.00,,,0.00,meteohub,2013-01-31 01:17:00,
2013-01-30 17:22:00,54.0,46.6,30.23,West,280,6.0,8.0,76,0.00,,,0.00,meteohub,2013-01-31 01:22:00,
2013-01-30 17:27:00,53.2,46.2,30.23,West,280,4.0,8.0,77,0.00,,,0.00,meteohub,2013-01-31 01:27:00,
2013-01-30 17:32:00,52.5,45.9,30.23,West,281,4.0,8.0,78,0.00,,,0.00,meteohub,2013-01-31 01:32:00,
2013-01-30 17:37:00,52.0,45.7,30.23,WNW,282,4.0,8.0,79,0.00,,,0.00,meteohub,2013-01-31 01:37:00,
2013-01-30 17:42:00,51.4,45.5,30.23,WNW,284,3.0,7.0,80,0.00,,,0.00,meteohub,2013-01-31 01:42:00,
2013-01-30 17:47:00,51.1,45.1,30.23,WNW,284,3.0,7.0,80,0.00,,,0.00,meteohub,2013-01-31 01:47:00,
2013-01-30 17:52:00,50.9,45.3,30.23,WNW,284,0.0,7.0,81,0.00,,,0.00,meteohub,2013-01-31 01:52:00,
2013-01-30 17:57:00,50.7,45.1,30.23,WNW,284,1.0,7.0,81,0.00,,,0.00,meteohub,2013-01-31 01:57:00,
2013-01-30 18:02:00,50.5,45.0,30.23,WNW,284,3.0,5.0,81,0.00,,,0.00,meteohub,2013-01-31 02:02:00,
2013-01-30 18:07:00,50.4,44.8,30.23,WNW,284,2.0,5.0,81,0.00,,,0.00,meteohub,2013-01-31 02:07:00,
2013-01-30 18:12:00,50.2,45.0,30.23,WNW,284,3.0,5.0,82,0.00,,,0.00,meteohub,2013-01-31 02:12:00,
2013-01-30 18:17:00,49.8,44.6,30.23,WNW,284,2.0,4.0,82,0.00,,,0.00,meteohub,2013-01-31 02:17:00,
2013-01-30 18:22:00,49.8,44.6,30.23,WNW,284,0.0,4.0,82,0.00,,,0.00,meteohub,2013-01-31 02:22:00,
2013-01-30 18:27:00,49.8,44.2,30.24,WNW,284,2.0,3.0,81,0.00,,,0.00,meteohub,2013-01-31 02:27:00,
2013-01-30 18:32:00,49.8,44.2,30.24,WNW,284,0.0,4.0,81,0.00,,,0.00,meteohub,2013-01-31 02:32:00,
2013-01-30 18:37:00,49.8,44.2,30.24,WNW,284,0.0,4.0,81,0.00,,,0.00,meteohub,2013-01-31 02:37:00,
2013-01-30 18:42:00,49.8,43.9,30.23,WNW,284,0.0,4.0,80,0.00,,,0.00,meteohub,2013-01-31 02:42:00,
2013-01-30 18:47:00,49.6,43.7,30.23,WNW,284,0.0,2.0,80,0.00,,,0.00,meteohub,2013-01-31 02:47:00,
2013-01-30 18:52:00,49.6,44.1,30.23,WNW,284,0.0,2.0,81,0.00,,,0.00,meteohub,2013-01-31 02:52:00,
2013-01-30 18:57:00,49.5,43.9,30.23,WNW,284,0.0,1.0,81,0.00,,,0.00,meteohub,2013-01-31 02:57:00,
2013-01-30 19:02:00,49.5,43.9,30.23,WNW,284,0.0,0.0,81,0.00,,,0.00,meteohub,2013-01-31 03:02:00,
2013-01-30 19:07:00,49.3,43.7,30.23,WNW,284,0.0,1.0,81,0.00,,,0.00,meteohub,2013-01-31 03:07:00,
2013-01-30 19:12:00,49.3,43.7,30.23,WNW,284,0.0,2.0,81,0.00,,,0.00,meteohub,2013-01-31 03:12:00,
2013-01-30 19:17:00,49.1,43.5,30.23,WNW,284,0.0,2.0,81,0.00,,,0.00,meteohub,2013-01-31 03:17:00,
2013-01-30 19:22:00,48.9,43.3,30.23,WNW,284,0.0,2.0,81,0.00,,,0.00,meteohub,2013-01-31 03:22:00,
2013-01-30 19:27:00,48.7,43.2,30.22,WNW,284,0.0,0.0,81,0.00,,,0.00,meteohub,2013-01-31 03:27:00,
2013-01-30 19:32:00,48.7,43.2,30.22,WNW,284,0.0,0.0,81,0.00,,,0.00,meteohub,2013-01-31 03:32:00,
2013-01-30 19:37:00,48.6,43.3,30.22,WNW,284,0.0,0.0,82,0.00,,,0.00,meteohub,2013-01-31 03:37:00,
2013-01-30 19:42:00,48.6,43.3,30.23,WNW,284,0.0,0.0,82,0.00,,,0.00,meteohub,2013-01-31 03:42:00,
2013-01-30 19:47:00,48.6,43.3,30.23,WNW,284,0.0,0.0,82,0.00,,,0.00,meteohub,2013-01-31 03:47:00,
2013-01-30 19:52:00,48.6,43.3,30.23,WNW,284,0.0,0.0,82,0.00,,,0.00,meteohub,2013-01-31 03:52:00,
2013-01-30 19:57:00,48.6,43.7,30.23,WNW,284,0.0,0.0,83,0.00,,,0.00,meteohub,2013-01-31 03:57:00,
2013-01-30 20:02:00,48.6,43.7,30.23,WNW,284,0.0,0.0,83,0.00,,,0.00,meteohub,2013-01-31 04:02:00,
2013-01-30 20:07:00,48.7,43.5,30.23,WNW,284,0.0,0.0,82,0.00,,,0.00,meteohub,2013-01-31 04:07:00,
2013-01-30 20:12:00,48.7,43.5,30.23,WNW,284,0.0,0.0,82,0.00,,,0.00,meteohub,2013-01-31 04:12:00,
2013-01-30 20:17:00,48.7,43.5,30.23,WNW,284,0.0,1.0,82,0.00,,,0.00,meteohub,2013-01-31 04:17:00,
2013-01-30 20:27:00,49.5,43.9,30.23,WNW,284,0.0,1.0,81,0.00,,,0.00,meteohub,2013-01-31 04:27:00,
2013-01-30 20:32:00,49.8,43.9,30.23,WNW,284,0.0,0.0,80,0.00,,,0.00,meteohub,2013-01-31 04:32:00,
2013-01-30 20:37:00,50.0,43.7,30.23,WNW,284,0.0,0.0,79,0.00,,,0.00,meteohub,2013-01-31 04:37:00,
2013-01-30 20:42:00,50.2,43.5,30.23,WNW,284,0.0,0.0,78,0.00,,,0.00,meteohub,2013-01-31 04:42:00,
2013-01-30 20:47:00,50.2,43.5,30.23,WNW,284,0.0,0.0,78,0.00,,,0.00,meteohub,2013-01-31 04:47:00,
2013-01-30 20:52:00,50.2,43.5,30.23,WNW,284,0.0,0.0,78,0.00,,,0.00,meteohub,2013-01-31 04:52:00,
2013-01-30 20:57:00,49.8,43.2,30.23,WNW,284,0.0,0.0,78,0.00,,,0.00,meteohub,2013-01-31 04:57:00,
2013-01-30 21:02:00,49.8,43.2,30.23,WNW,284,0.0,0.0,78,0.00,,,0.00,meteohub,2013-01-31 05:02:00,
2013-01-30 21:07:00,49.8,43.2,30.23,WNW,284,0.0,0.0,78,0.00,,,0.00,meteohub,2013-01-31 05:07:00,
2013-01-30 21:12:00,49.8,43.0,30.23,WNW,284,0.0,0.0,77,0.00,,,0.00,meteohub,2013-01-31 05:12:00,
2013-01-30 21:17:00,50.2,43.9,30.23,WNW,284,1.0,1.0,79,0.00,,,0.00,meteohub,2013-01-31 05:17:00,
2013-01-30 21:27:00,50.7,44.4,30.23,WNW,284,1.0,3.0,79,0.00,,,0.00,meteohub,2013-01-31 05:27:00,
2013-01-30 21:32:00,50.7,44.8,30.23,WNW,288,4.0,4.0,80,0.00,,,0.00,meteohub,2013-01-31 05:32:00,
2013-01-30 21:37:00,50.7,45.1,30.23,NNW,335,0.0,5.0,81,0.00,,,0.00,meteohub,2013-01-31 05:37:00,
2013-01-30 21:42:00,50.5,45.0,30.22,NNW,340,1.0,5.0,81,0.00,,,0.00,meteohub,2013-01-31 05:42:00,
2013-01-30 21:52:00,49.3,43.0,30.22,NNW,340,0.0,4.0,79,0.00,,,0.00,meteohub,2013-01-31 05:52:00,
2013-01-30 21:57:00,48.6,43.3,30.23,NNW,340,2.0,4.0,82,0.00,,,0.00,meteohub,2013-01-31 05:57:00,
2013-01-30 22:02:00,48.7,44.1,30.23,NNW,340,2.0,3.0,84,0.00,,,0.00,meteohub,2013-01-31 06:02:00,
2013-01-30 22:07:00,48.9,44.2,30.23,NNW,340,0.0,3.0,84,0.00,,,0.00,meteohub,2013-01-31 06:07:00,
2013-01-30 22:12:00,48.7,43.9,30.23,NNW,340,0.0,3.0,83,0.00,,,0.00,meteohub,2013-01-31 06:12:00,
2013-01-30 22:17:00,48.6,43.7,30.23,NNW,340,0.0,2.0,83,0.00,,,0.00,meteohub,2013-01-31 06:17:00,
2013-01-30 22:22:00,48.6,44.2,30.23,NNW,340,0.0,1.0,85,0.00,,,0.00,meteohub,2013-01-31 06:22:00,
2013-01-30 22:27:00,48.9,44.2,30.23,NNW,340,0.0,1.0,84,0.00,,,0.00,meteohub,2013-01-31 06:27:00,
2013-01-30 22:32:00,48.4,43.5,30.23,NNW,340,0.0,1.0,83,0.00,,,0.00,meteohub,2013-01-31 06:32:00,
2013-01-30 22:42:00,48.6,44.2,30.23,NNW,340,0.0,3.0,85,0.00,,,0.00,meteohub,2013-01-31 06:42:00,
2013-01-30 22:47:00,48.2,43.5,30.23,NNW,340,0.0,3.0,84,0.00,,,0.00,meteohub,2013-01-31 06:47:00,
2013-01-30 22:52:00,48.0,43.7,30.23,NNW,340,0.0,3.0,85,0.00,,,0.00,meteohub,2013-01-31 06:52:00,
2013-01-30 22:57:00,47.8,43.9,30.23,NNW,340,0.0,0.0,86,0.00,,,0.00,meteohub,2013-01-31 06:57:00,
2013-01-30 23:02:00,47.7,43.7,30.23,NNW,340,0.0,0.0,86,0.00,,,0.00,meteohub,2013-01-31 07:02:00,
2013-01-30 23:07:00,47.7,43.3,30.23,NNW,340,0.0,0.0,85,0.00,,,0.00,meteohub,2013-01-31 07:07:00,
2013-01-30 23:12:00,47.3,43.3,30.23,NNW,340,0.0,0.0,86,0.00,,,0.00,meteohub,2013-01-31 07:12:00,
2013-01-30 23:22:00,46.8,42.4,30.23,NNW,340,1.0,2.0,85,0.00,,,0.00,meteohub,2013-01-31 07:22:00,
2013-01-30 23:32:00,46.4,42.4,30.24,NNW,340,0.0,2.0,86,0.00,,,0.00,meteohub,2013-01-31 07:32:00,
2013-01-30 23:42:00,46.6,43.0,30.24,NNW,340,0.0,1.0,87,0.00,,,0.00,meteohub,2013-01-31 07:42:00,
2013-01-30 23:47:00,46.8,42.8,30.24,NNW,340,0.0,0.0,86,0.00,,,0.00,meteohub,2013-01-31 07:47:00,
2013-01-30 23:52:00,47.1,43.2,30.24,NNW,340,2.0,0.0,86,0.00,,,0.00,meteohub,2013-01-31 07:52:00,
2013-01-30 23:57:00,47.7,43.0,30.24,NNW,340,0.0,2.0,84,0.00,,,0.00,meteohub,2013-01-31 07:57:00,